createdAt,value
2023-01-30T00:03:56.289Z,48.60
2023-01-30T00:08:55.177Z,42.90
2023-01-30T00:13:53.515Z,37.10
2023-01-30T00:18:54.608Z,100.40
2023-01-30T00:23:52.923Z,87.50
2023-01-30T00:28:53.035Z,87.30
2023-01-30T00:33:51.343Z,72.30
2023-01-30T00:38:50.666Z,64.80
2023-01-30T00:43:52.019Z,56.30
2023-01-30T00:48:49.085Z,53.80
2023-01-30T00:53:49.416Z,47.60
2023-01-30T00:58:48.683Z,44.00
2023-01-30T01:03:47.012Z,40.20
2023-01-30T01:08:46.112Z,38.10
2023-01-30T01:13:45.297Z,33.80
2023-01-30T01:18:44.569Z,31.70
2023-01-30T01:23:43.741Z,29.00
2023-01-30T01:28:42.955Z,29.80
2023-01-30T01:33:42.160Z,26.40
2023-01-30T01:38:42.400Z,26.10
2023-01-30T01:43:40.603Z,25.40
2023-01-30T01:48:40.829Z,25.00
2023-01-30T01:53:39.053Z,22.60
2023-01-30T01:58:38.272Z,22.70
2023-01-30T02:03:37.507Z,23.20
2023-01-30T02:08:36.744Z,22.70
2023-01-30T02:13:35.936Z,20.20
2023-01-30T02:18:36.144Z,20.30
2023-01-30T02:23:36.386Z,19.40
2023-01-30T02:28:34.596Z,20.50
2023-01-30T02:33:34.754Z,19.50
2023-01-30T02:38:31.961Z,19.60
2023-01-30T02:43:32.152Z,19.70
2023-01-30T02:48:30.340Z,18.80
2023-01-30T02:53:29.532Z,18.90
2023-01-30T02:58:28.694Z,17.70
2023-01-30T03:03:27.887Z,18.50
2023-01-30T03:08:27.126Z,16.90
2023-01-30T03:13:26.375Z,17.50
2023-01-30T03:18:26.530Z,16.90
2023-01-30T03:23:25.723Z,16.80
2023-01-30T03:28:25.951Z,17.80
2023-01-30T03:33:22.157Z,15.20
2023-01-30T03:38:22.455Z,15.00
2023-01-30T03:43:21.651Z,14.40
2023-01-30T03:48:20.854Z,15.60
2023-01-30T03:53:20.073Z,15.60
2023-01-30T03:58:19.259Z,15.20
2023-01-30T04:03:17.544Z,14.90
2023-01-30T04:08:17.753Z,14.90
2023-01-30T04:13:18.036Z,14.10
2023-01-30T04:18:17.237Z,14.50
2023-01-30T04:23:15.456Z,13.10
2023-01-30T04:28:14.636Z,11.90
2023-01-30T04:33:14.829Z,12.50
2023-01-30T04:38:15.032Z,11.70
2023-01-30T04:43:12.193Z,11.50
2023-01-30T04:48:13.374Z,11.30
2023-01-30T04:53:10.558Z,12.10
2023-01-30T04:58:09.756Z,11.30
2023-01-30T05:03:09.146Z,12.60
2023-01-30T05:08:08.325Z,11.50
2023-01-30T05:13:07.478Z,11.90
2023-01-30T05:18:08.588Z,12.50
2023-01-30T05:23:06.940Z,11.80
2023-01-30T05:28:47.312Z,9.40
2023-01-30T05:33:04.619Z,9.30
2023-01-30T05:38:03.766Z,10.00
2023-01-30T05:43:03.093Z,10.30
2023-01-30T05:48:02.404Z,7.60
2023-01-30T05:53:01.719Z,8.80
2023-01-30T05:58:44.085Z,8.90
2023-01-30T06:03:00.371Z,8.90
2023-01-30T06:08:00.475Z,8.20
2023-01-30T06:12:58.772Z,7.30
2023-01-30T06:17:58.072Z,7.80
2023-01-30T06:22:57.370Z,8.50
2023-01-30T06:27:56.692Z,8.60
2023-01-30T06:32:57.025Z,9.60
2023-01-30T06:37:57.125Z,12.20
2023-01-30T06:42:55.420Z,8.80
2023-01-30T06:47:54.751Z,9.40
2023-01-30T06:52:54.087Z,9.50
2023-01-30T06:57:52.205Z,8.00
2023-01-30T07:02:52.557Z,9.60
2023-01-30T07:07:50.711Z,10.60
2023-01-30T07:12:49.872Z,10.30
2023-01-30T07:17:49.015Z,12.10
2023-01-30T07:22:48.342Z,11.30
2023-01-30T07:27:47.658Z,10.80
2023-01-30T07:32:46.978Z,9.30
2023-01-30T07:37:47.280Z,10.70
2023-01-30T07:42:45.593Z,10.50
2023-01-30T07:47:44.894Z,8.60
2023-01-30T07:52:44.190Z,10.70
2023-01-30T07:57:43.495Z,10.80
2023-01-30T08:02:42.801Z,10.50
2023-01-30T08:07:42.998Z,8.90
2023-01-30T08:12:41.305Z,8.40
2023-01-30T08:17:41.457Z,8.60
2023-01-30T08:22:39.731Z,9.50
2023-01-30T08:27:39.864Z,8.00
2023-01-30T08:32:37.983Z,8.30
2023-01-30T08:37:38.125Z,8.50
2023-01-30T08:42:38.299Z,8.50
2023-01-30T08:47:36.422Z,9.70
2023-01-30T08:52:34.772Z,9.70
2023-01-30T08:57:33.929Z,9.50
2023-01-30T09:02:33.118Z,10.50
2023-01-30T09:07:33.293Z,10.80
2023-01-30T09:12:30.412Z,9.80
2023-01-30T09:17:31.743Z,9.30
2023-01-30T09:22:31.055Z,10.80
2023-01-30T09:27:29.386Z,10.10
2023-01-30T09:32:28.723Z,10.00
2023-01-30T09:37:28.801Z,9.90
2023-01-30T09:42:27.096Z,9.40
2023-01-30T09:47:26.394Z,9.80
2023-01-30T09:52:26.742Z,9.60
2023-01-30T09:57:27.043Z,9.20
2023-01-30T10:02:24.330Z,9.50
2023-01-30T10:07:23.723Z,9.20
2023-01-30T10:12:24.843Z,8.10
2023-01-30T10:17:24.214Z,9.00
2023-01-30T10:22:22.346Z,9.30
2023-01-30T10:27:20.488Z,8.30
2023-01-30T10:32:19.636Z,9.70
2023-01-30T10:37:18.972Z,8.10
2023-01-30T10:42:18.129Z,8.90
2023-01-30T10:47:18.282Z,8.00
2023-01-30T10:52:16.471Z,8.40
2023-01-30T10:57:16.619Z,7.80
2023-01-30T11:02:14.950Z,7.30
2023-01-30T11:07:13.283Z,7.80
2023-01-30T11:12:13.593Z,7.10
2023-01-30T11:17:12.955Z,6.40
2023-01-30T11:22:13.086Z,7.60
2023-01-30T11:27:11.439Z,6.80
2023-01-30T11:32:11.637Z,7.60
2023-01-30T11:37:09.748Z,6.90
2023-01-30T11:42:09.053Z,8.10
2023-01-30T11:47:08.358Z,6.20
2023-01-30T11:52:07.698Z,6.80
2023-01-30T11:57:07.844Z,7.30
2023-01-30T12:02:06.012Z,7.20
2023-01-30T12:07:05.156Z,7.10
2023-01-30T12:12:04.488Z,6.80
2023-01-30T12:17:03.802Z,9.00
2023-01-30T12:22:05.130Z,6.50
2023-01-30T12:27:02.431Z,5.90
2023-01-30T12:32:03.737Z,5.70
2023-01-30T12:37:01.068Z,6.00
2023-01-30T12:42:01.384Z,5.40
2023-01-30T12:47:00.711Z,7.40
2023-01-30T12:51:59.144Z,5.90
2023-01-30T12:56:57.063Z,4.80
2023-01-30T13:01:57.409Z,5.30
2023-01-30T13:06:56.544Z,4.80
2023-01-30T13:11:55.856Z,4.80
2023-01-30T13:16:55.169Z,5.30
2023-01-30T13:21:54.479Z,5.40
2023-01-30T13:26:53.891Z,4.70
2023-01-30T13:31:53.177Z,4.30
2023-01-30T13:36:52.272Z,5.70
2023-01-30T13:41:56.582Z,4.00
2023-01-30T13:46:51.825Z,4.70
2023-01-30T13:51:49.764Z,4.80
2023-01-30T13:56:49.917Z,4.20
2023-01-30T14:01:48.258Z,4.30
2023-01-30T14:06:47.400Z,4.00
2023-01-30T14:11:46.747Z,4.20
2023-01-30T14:16:46.868Z,5.20
2023-01-30T14:21:45.178Z,3.20
2023-01-30T14:26:46.673Z,4.10
2023-01-30T14:31:43.850Z,3.80
2023-01-30T14:36:43.066Z,4.70
2023-01-30T14:41:42.218Z,5.00
2023-01-30T14:46:41.615Z,3.60
2023-01-30T14:51:40.786Z,3.10
2023-01-30T14:56:39.976Z,3.20
2023-01-30T15:01:39.160Z,4.00
2023-01-30T15:06:42.413Z,3.40
2023-01-30T15:11:38.540Z,3.30
2023-01-30T15:16:37.949Z,3.90
2023-01-30T15:21:35.094Z,2.80
2023-01-30T15:26:36.279Z,2.90
2023-01-30T15:31:35.553Z,4.00
2023-01-30T15:36:35.691Z,3.40
2023-01-30T15:41:33.074Z,3.00
2023-01-30T15:46:33.197Z,3.40
2023-01-30T15:51:31.518Z,3.40
2023-01-30T15:56:31.840Z,3.50
2023-01-30T16:01:30.423Z,3.60
2023-01-30T16:06:29.450Z,3.50
2023-01-30T16:11:29.821Z,2.80
2023-01-30T16:16:28.014Z,3.40
2023-01-30T16:21:27.300Z,3.30
2023-01-30T16:26:28.248Z,4.10
2023-01-30T16:31:25.729Z,2.80
2023-01-30T16:36:25.726Z,3.00
2023-01-30T16:41:26.086Z,3.90
2023-01-30T16:46:23.305Z,2.40
2023-01-30T16:51:23.459Z,2.50
2023-01-30T16:56:21.886Z,2.50
2023-01-30T17:01:21.472Z,3.00
2023-01-30T17:06:21.333Z,2.60
2023-01-30T17:11:19.479Z,2.80
2023-01-30T17:16:18.862Z,2.00
2023-01-30T17:21:18.090Z,2.20
2023-01-30T17:26:18.612Z,2.20
2023-01-30T17:31:17.500Z,2.20
2023-01-30T17:36:16.700Z,2.10
2023-01-30T17:41:16.162Z,2.30
2023-01-30T17:46:15.298Z,5.00
2023-01-30T17:51:13.433Z,6.30
2023-01-30T17:56:13.920Z,5.10
2023-01-30T18:01:12.396Z,6.20
2023-01-30T18:06:12.701Z,5.90
2023-01-30T18:11:12.596Z,5.10
2023-01-30T18:16:09.737Z,6.00
2023-01-30T18:21:09.229Z,5.90
2023-01-30T18:26:08.359Z,7.40
2023-01-30T18:31:07.833Z,6.00
2023-01-30T18:36:06.914Z,6.40
2023-01-30T18:41:06.248Z,5.50
2023-01-30T18:46:07.502Z,6.50
2023-01-30T18:51:04.810Z,6.20
2023-01-30T18:56:04.825Z,6.00
2023-01-30T19:01:03.425Z,6.20
2023-01-30T19:06:06.365Z,6.90
2023-01-30T19:11:02.091Z,6.20
2023-01-30T19:16:01.141Z,6.50
2023-01-30T19:21:00.661Z,7.30
2023-01-30T19:26:00.539Z,6.70
2023-01-30T19:30:59.331Z,6.80
2023-01-30T19:36:02.414Z,6.60
2023-01-30T19:40:57.388Z,6.80
2023-01-30T19:45:59.328Z,6.60
2023-01-30T19:50:58.242Z,6.80
2023-01-30T19:55:55.569Z,6.30
2023-01-30T20:00:54.757Z,6.00
2023-01-30T20:05:53.602Z,6.50
2023-01-30T20:10:55.097Z,6.30
2023-01-30T20:15:53.350Z,7.10
2023-01-30T20:20:51.445Z,6.00
2023-01-30T20:25:50.762Z,5.80
2023-01-30T20:30:54.049Z,6.50
2023-01-30T20:35:49.421Z,5.90
2023-01-30T20:40:49.513Z,5.40
2023-01-30T20:45:47.935Z,5.90
2023-01-30T20:50:47.078Z,5.70
2023-01-30T20:55:47.408Z,5.80
2023-01-30T21:00:45.541Z,5.00
2023-01-30T21:05:45.856Z,5.50
2023-01-30T21:10:44.053Z,5.30
2023-01-30T21:15:46.200Z,5.70
2023-01-30T21:20:42.324Z,5.90
2023-01-30T21:25:42.728Z,5.20
2023-01-30T21:30:40.950Z,4.70
2023-01-30T21:35:40.278Z,5.00
2023-01-30T21:40:41.351Z,5.90
2023-01-30T21:45:39.145Z,5.10
2023-01-30T21:50:38.043Z,5.30
2023-01-30T21:55:37.784Z,5.30
2023-01-30T22:00:37.752Z,6.20
2023-01-30T22:05:37.684Z,5.20
2023-01-30T22:10:34.942Z,6.40
2023-01-30T22:15:33.375Z,5.00
2023-01-30T22:20:34.521Z,5.60
2023-01-30T22:25:33.837Z,4.40
2023-01-30T22:30:32.219Z,4.70
2023-01-30T22:35:31.342Z,4.90
2023-01-30T22:40:30.673Z,4.20
2023-01-30T22:45:30.037Z,4.50
2023-01-30T22:50:29.202Z,3.40
2023-01-30T22:55:27.539Z,3.30
2023-01-30T23:00:27.628Z,3.10
2023-01-30T23:05:25.928Z,3.10
2023-01-30T23:10:27.223Z,3.40
2023-01-30T23:15:25.591Z,2.80
2023-01-30T23:20:24.715Z,3.20
2023-01-30T23:25:24.124Z,2.50
2023-01-30T23:30:24.268Z,3.30
2023-01-30T23:35:24.794Z,2.40
2023-01-30T23:40:21.926Z,2.10
2023-01-30T23:45:20.483Z,2.50
2023-01-30T23:50:21.479Z,2.50
2023-01-30T23:55:19.938Z,2.00
